Time;durP1;ratioP1;P1;durP2;ratioP2;P2;SDS_P1;SDS_P2;PMS_P1;PMS_P2;Temp;Humidity;BMP_temperature;BMP_pressure;BME280_temperature;BME280_humidity;BME280_pressure;Samples;Min_cycle;Max_cycle;Signal;HPM_P1;HPM_P2
2022/01/10 05:06:46;;;;;;;;;12.00;10.25;;;;;;;;5762504;39;9999983;-48
2022/01/10 18:08:54;;;;;;;;;20.50;17.00;;;;;;;;6384867;39;50726;-51
2022/01/10 18:15:08;;;;;;;;;30.75;27.00;;;;;;;;6492258;46;8954;-51
2022/01/10 18:21:11;;;;;;;;;29.25;27.50;;;;;;;;6493097;39;8824;-54
2022/01/10 18:27:16;;;;;;;;;31.50;29.75;;;;;;;;6491539;31;8863;-49
2022/01/10 18:33:19;;;;;;;;;34.75;27.75;;;;;;;;6492972;39;8926;-53
2022/01/10 18:39:25;;;;;;;;;34.25;31.50;;;;;;;;6493497;31;9001;-51
2022/01/10 18:45:28;;;;;;;;;29.50;26.00;;;;;;;;6491173;46;8920;-49
2022/01/10 18:51:31;;;;;;;;;33.00;29.25;;;;;;;;6492480;39;8922;-47
2022/01/10 18:57:34;;;;;;;;;30.00;27.25;;;;;;;;6491879;46;8847;-51
2022/01/10 19:03:38;;;;;;;;;38.25;28.00;;;;;;;;6491704;31;8918;-49
2022/01/10 19:09:40;;;;;;;;;34.50;30.25;;;;;;;;6492154;39;8892;-51
2022/01/10 19:15:45;;;;;;;;;42.25;35.00;;;;;;;;6490994;47;8863;-52
2022/01/10 19:21:50;;;;;;;;;31.50;25.00;;;;;;;;6492265;31;8836;-48
2022/01/10 19:27:53;;;;;;;;;37.75;30.25;;;;;;;;6491300;47;8914;-50
2022/01/10 19:33:56;;;;;;;;;34.00;31.25;;;;;;;;6491823;39;8860;-49
2022/01/10 19:39:58;;;;;;;;;30.25;27.50;;;;;;;;6491554;31;8882;-50
2022/01/10 19:46:02;;;;;;;;;34.00;27.50;;;;;;;;6491624;39;8906;-50
2022/01/10 19:52:07;;;;;;;;;32.25;25.00;;;;;;;;6492133;39;8895;-47
2022/01/10 19:58:10;;;;;;;;;39.75;31.50;;;;;;;;6490973;39;9458;-53
2022/01/10 20:04:12;;;;;;;;;28.25;26.75;;;;;;;;6491260;47;8921;-52
2022/01/10 20:10:14;;;;;;;;;23.25;21.25;;;;;;;;6491527;39;8904;-52
2022/01/10 20:16:17;;;;;;;;;28.25;24.25;;;;;;;;6493002;39;8870;-53
2022/01/10 20:22:19;;;;;;;;;36.00;33.00;;;;;;;;6494237;39;8812;-50
2022/01/10 20:28:30;;;;;;;;;23.50;20.75;;;;;;;;6492514;39;9010;-52
2022/01/10 20:34:54;;;;;;;;;37.00;33.75;;;;;;;;6493984;46;8951;-51
2022/01/10 20:40:56;;;;;;;;;29.50;29.50;;;;;;;;6492247;46;8859;-52
2022/01/10 20:47:01;;;;;;;;;30.25;27.00;;;;;;;;6492379;46;8868;-51
2022/01/10 20:53:06;;;;;;;;;35.75;28.50;;;;;;;;6493576;39;9680;-50
2022/01/10 20:59:08;;;;;;;;;28.50;23.00;;;;;;;;6492243;39;8900;-52
2022/01/10 21:05:14;;;;;;;;;26.00;24.25;;;;;;;;6494761;31;8855;-51
2022/01/10 21:11:18;;;;;;;;;51.00;37.50;;;;;;;;6492562;46;8864;-49
2022/01/10 21:17:21;;;;;;;;;30.25;28.00;;;;;;;;6493142;31;8855;-53
2022/01/10 21:23:27;;;;;;;;;37.25;32.50;;;;;;;;6493343;46;8871;-54
2022/01/10 21:29:31;;;;;;;;;45.50;37.50;;;;;;;;6491688;39;8953;-49
2022/01/10 21:35:35;;;;;;;;;42.75;37.50;;;;;;;;6493538;31;8829;-53
2022/01/10 21:41:41;;;;;;;;;42.75;33.25;;;;;;;;6492082;39;9529;-52
2022/01/10 21:47:43;;;;;;;;;28.00;27.00;;;;;;;;6492215;39;8880;-51
2022/01/10 21:53:47;;;;;;;;;32.00;25.25;;;;;;;;6493085;39;8902;-50
2022/01/10 21:59:49;;;;;;;;;39.00;33.25;;;;;;;;6492351;39;8847;-47
2022/01/10 22:05:53;;;;;;;;;35.00;31.25;;;;;;;;6493753;39;9533;-50
2022/01/10 22:11:55;;;;;;;;;52.50;43.25;;;;;;;;6492324;31;8911;-49
2022/01/10 22:17:59;;;;;;;;;27.50;23.50;;;;;;;;6492455;46;8851;-51
2022/01/10 22:24:02;;;;;;;;;37.00;34.25;;;;;;;;6493387;39;8856;-49
2022/01/10 22:30:07;;;;;;;;;42.25;36.25;;;;;;;;6492645;31;9002;-53
2022/01/10 22:36:11;;;;;;;;;36.50;32.25;;;;;;;;6492899;46;8835;-53
2022/01/10 22:42:13;;;;;;;;;37.75;31.50;;;;;;;;6491716;46;8965;-50
2022/01/10 22:48:18;;;;;;;;;27.75;22.50;;;;;;;;6492099;39;8836;-51
2022/01/10 22:54:22;;;;;;;;;33.25;31.50;;;;;;;;6491183;39;8944;-50
2022/01/10 23:00:28;;;;;;;;;25.00;23.00;;;;;;;;6491867;31;8922;-51
2022/01/10 23:06:31;;;;;;;;;51.33;37.67;;;;;;;;6492494;31;8879;-49
2022/01/10 23:12:35;;;;;;;;;37.50;33.25;;;;;;;;6491912;39;8958;-53
2022/01/10 23:18:39;;;;;;;;;39.00;36.25;;;;;;;;6492441;39;9018;-49
2022/01/10 23:24:41;;;;;;;;;38.75;29.75;;;;;;;;6492338;39;9503;-50
2022/01/10 23:30:43;;;;;;;;;27.00;19.00;;;;;;;;6491437;47;8927;-51
2022/01/10 23:36:52;;;;;;;;;36.50;33.00;;;;;;;;6492773;39;8884;-50
2022/01/10 23:42:57;;;;;;;;;44.00;34.00;;;;;;;;6491388;39;8925;-49
2022/01/10 23:49:04;;;;;;;;;25.25;23.25;;;;;;;;6492802;46;8875;-52
2022/01/10 23:55:07;;;;;;;;;27.75;21.00;;;;;;;;6493696;39;9374;-52
